Time;durP1;ratioP1;P1;durP2;ratioP2;P2;SDS_P1;SDS_P2;PMS_P1;PMS_P2;Temp;Humidity;BMP_temperature;BMP_pressure;BME280_temperature;BME280_humidity;BME280_pressure;Samples;Min_cycle;Max_cycle;Signal;HPM_P1;HPM_P2
2022/11/18 00:00:05;;;;;;;0.13;0.13;;;7.10;99.90;;;;;;5154961;27;20042;-72
2022/11/18 00:02:31;;;;;;;0.10;0.10;;;7.10;99.90;;;;;;5136390;27;20048;-71
2022/11/18 00:04:56;;;;;;;0.10;0.10;;;7.10;99.90;;;;;;5135816;27;20043;-72
2022/11/18 00:07:22;;;;;;;0.10;0.10;;;7.10;99.90;;;;;;5126362;27;20039;-72
2022/11/18 00:09:48;;;;;;;0.20;0.20;;;7.10;99.90;;;;;;5117370;27;20047;-72
2022/11/18 00:14:58;;;;;;;0.10;0.10;;;7.10;99.90;;;;;;5134260;27;20089;-72
2022/11/18 00:17:24;;;;;;;0.10;0.10;;;7.10;99.90;;;;;;5115360;27;20135;-71
2022/11/18 00:19:49;;;;;;;0.10;0.10;;;7.10;99.90;;;;;;5131096;27;20654;-71
2022/11/18 00:22:15;;;;;;;0.13;0.13;;;7.10;99.90;;;;;;5150635;27;20035;-73
2022/11/18 00:24:40;;;;;;;0.20;0.20;;;7.10;99.90;;;;;;5122315;27;20129;-71
2022/11/18 00:27:06;;;;;;;0.10;0.10;;;7.10;99.90;;;;;;5135828;27;20609;-71
2022/11/18 00:29:32;;;;;;;0.10;0.10;;;7.10;99.90;;;;;;5139738;27;20035;-71
2022/11/18 00:31:58;;;;;;;0.10;0.10;;;7.10;99.90;;;;;;5122258;27;20560;-71
2022/11/18 00:34:24;;;;;;;0.17;0.17;;;7.10;99.90;;;;;;5114573;27;20549;-72
2022/11/18 00:36:50;;;;;;;0.10;0.10;;;7.10;99.90;;;;;;5134571;27;20053;-72
2022/11/18 00:39:18;;;;;;;0.20;0.20;;;7.10;99.90;;;;;;5131286;27;20370;-72
2022/11/18 00:44:29;;;;;;;0.10;0.10;;;7.10;99.90;;;;;;5135762;27;20050;-72
2022/11/18 00:46:54;;;;;;;0.10;0.10;;;7.10;99.90;;;;;;5153045;27;20057;-72
2022/11/18 00:49:20;;;;;;;0.10;0.10;;;7.00;99.90;;;;;;5131915;27;20049;-72
2022/11/18 00:51:46;;;;;;;0.10;0.10;;;7.00;99.90;;;;;;5135485;27;20397;-72
2022/11/18 00:54:12;;;;;;;0.17;0.17;;;7.00;99.90;;;;;;5153309;27;20041;-72
2022/11/18 00:56:37;;;;;;;0.20;0.20;;;7.10;99.90;;;;;;5135207;27;20042;-72
2022/11/18 00:59:03;;;;;;;0.20;0.20;;;7.10;99.90;;;;;;5118804;27;20077;-72
2022/11/18 01:01:29;;;;;;;0.20;0.20;;;7.10;99.90;;;;;;5132308;27;20131;-72
2022/11/18 01:03:54;;;;;;;0.10;0.10;;;7.10;99.90;;;;;;5150313;27;20080;-72
2022/11/18 01:06:20;;;;;;;0.10;0.10;;;7.00;99.90;;;;;;5135162;27;20121;-72
2022/11/18 01:08:46;;;;;;;0.10;0.10;;;7.00;99.90;;;;;;5133253;27;20042;-71
2022/11/18 01:13:56;;;;;;;0.20;0.20;;;7.00;99.90;;;;;;5152440;27;20121;-71
2022/11/18 01:16:24;;;;;;;0.13;0.13;;;7.00;99.90;;;;;;5116361;27;20561;-71
2022/11/18 01:18:50;;;;;;;0.10;0.10;;;7.00;99.90;;;;;;5135999;27;20359;-71
2022/11/18 01:21:16;;;;;;;0.10;0.10;;;7.00;99.90;;;;;;5151223;27;20050;-71
2022/11/18 01:23:42;;;;;;;0.10;0.10;;;7.00;99.90;;;;;;5121426;27;20415;-71
2022/11/18 01:26:11;;;;;;;0.10;0.10;;;7.00;99.90;;;;;;5135150;27;20050;-72
2022/11/18 01:28:40;;;;;;;0.10;0.10;;;7.00;99.90;;;;;;5137810;27;20104;-70
2022/11/18 01:31:42;;;;;;;0.20;0.20;;;6.90;99.90;;;;;;5138103;27;20046;-71
2022/11/18 01:34:11;;;;;;;0.10;0.10;;;6.90;99.90;;;;;;5113273;27;20051;-70
2022/11/18 01:36:41;;;;;;;0.20;0.20;;;6.90;99.90;;;;;;5102317;27;20057;-71
2022/11/18 01:39:11;;;;;;;0.20;0.20;;;7.00;99.90;;;;;;5106993;27;20572;-71
2022/11/18 01:41:37;;;;;;;0.10;0.10;;;7.00;99.90;;;;;;5113713;27;20050;-71
2022/11/18 01:44:45;;;;;;;0.10;0.10;;;6.90;99.90;;;;;;5129974;27;20707;-71
2022/11/18 01:47:20;;;;;;;0.20;0.20;;;7.00;99.90;;;;;;5123349;27;20059;-71
2022/11/18 01:49:50;;;;;;;0.10;0.10;;;7.00;99.90;;;;;;5124330;27;20050;-71
2022/11/18 01:52:26;;;;;;;0.13;0.13;;;7.00;99.90;;;;;;5151255;27;20043;-71
2022/11/18 01:55:01;;;;;;;0.10;0.10;;;7.00;99.90;;;;;;5134173;27;20519;-71
2022/11/18 01:57:29;;;;;;;0.20;0.20;;;7.00;99.90;;;;;;5150718;27;20102;-71
2022/11/18 01:59:58;;;;;;;0.10;0.10;;;7.00;99.90;;;;;;5133623;27;20050;-72
2022/11/18 02:02:25;;;;;;;0.20;0.20;;;7.00;99.90;;;;;;5133326;27;20525;-71
2022/11/18 02:04:53;;;;;;;0.20;0.20;;;7.00;99.90;;;;;;5143949;27;20046;-71
2022/11/18 02:07:20;;;;;;;0.20;0.20;;;7.00;99.90;;;;;;5120722;27;20034;-71
2022/11/18 02:09:46;;;;;;;0.10;0.10;;;7.00;99.90;;;;;;5123021;27;20647;-71
2022/11/18 02:12:12;;;;;;;0.20;0.20;;;6.90;99.90;;;;;;5116276;27;20042;-71
2022/11/18 02:14:41;;;;;;;0.20;0.20;;;7.00;99.90;;;;;;5133882;27;20458;-71
2022/11/18 02:17:51;;;;;;;0.20;0.20;;;6.90;99.90;;;;;;5152066;27;20046;-71
2022/11/18 02:20:29;;;;;;;0.10;0.10;;;6.90;99.90;;;;;;5046457;28;20481;-72
2022/11/18 02:23:10;;;;;;;0.20;0.20;;;6.90;99.90;;;;;;5021368;28;20091;-72
2022/11/18 02:26:03;;;;;;;0.10;0.10;;;6.90;99.90;;;;;;5084089;27;20043;-72
2022/11/18 02:29:14;;;;;;;0.10;0.10;;;6.90;99.90;;;;;;5112127;27;20148;-71
2022/11/18 02:31:42;;;;;;;0.10;0.10;;;6.90;99.90;;;;;;5122810;27;20038;-73
2022/11/18 02:34:32;;;;;;;0.10;0.10;;;6.90;99.90;;;;;;5131100;27;20034;-71
2022/11/18 02:37:22;;;;;;;0.17;0.17;;;6.90;99.90;;;;;;5125974;27;20512;-72
2022/11/18 02:40:00;;;;;;;0.20;0.20;;;6.90;99.90;;;;;;5122657;27;20065;-72
2022/11/18 02:42:29;;;;;;;0.10;0.10;;;6.90;99.90;;;;;;5133863;27;20043;-72
2022/11/18 02:45:01;;;;;;;0.20;0.20;;;6.90;99.90;;;;;;5121012;27;20042;-71
2022/11/18 02:47:30;;;;;;;0.20;0.20;;;6.90;99.90;;;;;;5132309;27;20034;-72
2022/11/18 02:50:01;;;;;;;0.15;0.15;;;6.90;99.90;;;;;;5150805;27;20062;-72
2022/11/18 02:52:27;;;;;;;0.20;0.20;;;6.80;99.90;;;;;;5151855;27;20072;-72
2022/11/18 02:54:54;;;;;;;0.17;0.17;;;6.80;99.90;;;;;;5132495;27;20039;-72
2022/11/18 02:57:22;;;;;;;0.13;0.13;;;6.80;99.90;;;;;;5122778;28;20047;-72
2022/11/18 02:59:48;;;;;;;0.20;0.20;;;6.80;99.90;;;;;;5131138;27;20046;-72
2022/11/18 03:02:18;;;;;;;0.15;0.15;;;6.90;99.90;;;;;;5140826;27;20039;-72
2022/11/18 03:04:46;;;;;;;0.20;0.20;;;6.90;99.90;;;;;;5123763;27;20070;-72
2022/11/18 03:07:35;;;;;;;0.10;0.10;;;6.80;99.90;;;;;;5151085;27;20042;-72
2022/11/18 03:10:01;;;;;;;0.10;0.10;;;6.80;99.90;;;;;;5151559;27;20039;-73
2022/11/18 03:12:41;;;;;;;0.13;0.13;;;6.90;99.90;;;;;;5150531;27;20557;-72
2022/11/18 03:15:33;;;;;;;0.10;0.10;;;6.90;99.90;;;;;;5150224;27;20034;-72
2022/11/18 03:18:12;;;;;;;0.10;0.10;;;6.80;99.90;;;;;;5141472;27;20079;-72
2022/11/18 03:20:51;;;;;;;0.10;0.10;;;6.80;99.90;;;;;;5134167;27;20034;-72
2022/11/18 03:23:27;;;;;;;0.17;0.17;;;6.80;99.90;;;;;;5117653;28;20436;-72
2022/11/18 03:26:00;;;;;;;0.10;0.10;;;6.80;99.90;;;;;;5112352;27;20047;-72
2022/11/18 03:28:52;;;;;;;0.20;0.20;;;6.80;99.90;;;;;;5111115;28;20051;-72
2022/11/18 03:31:36;;;;;;;0.20;0.20;;;6.70;99.90;;;;;;5115266;27;20100;-72
2022/11/18 03:34:12;;;;;;;0.20;0.20;;;6.70;99.90;;;;;;5137309;27;20066;-72
2022/11/18 03:36:41;;;;;;;0.20;0.20;;;6.70;99.90;;;;;;5117795;27;20066;-72
2022/11/18 03:39:09;;;;;;;0.20;0.20;;;6.70;99.90;;;;;;5131376;27;20082;-72
2022/11/18 03:41:40;;;;;;;0.10;0.10;;;7.10;99.90;;;;;;5133752;27;20050;-72
2022/11/18 03:44:11;;;;;;;0.20;0.20;;;6.70;99.90;;;;;;5128664;27;20058;-72
2022/11/18 03:46:45;;;;;;;0.20;0.20;;;6.70;99.90;;;;;;5117383;27;20700;-72
2022/11/18 03:49:17;;;;;;;0.20;0.20;;;6.60;99.90;;;;;;5129801;27;20134;-72
2022/11/18 03:51:49;;;;;;;0.20;0.20;;;6.70;99.90;;;;;;5120772;27;20047;-73
2022/11/18 03:54:20;;;;;;;0.10;0.10;;;6.60;99.90;;;;;;5142854;27;20047;-72
2022/11/18 03:56:53;;;;;;;0.13;0.13;;;7.30;99.90;;;;;;5133083;27;20096;-72
2022/11/18 03:59:35;;;;;;;0.10;0.10;;;6.60;99.90;;;;;;5115156;27;20058;-72
2022/11/18 04:02:16;;;;;;;0.10;0.10;;;6.60;99.90;;;;;;5138188;27;20070;-72
2022/11/18 04:04:44;;;;;;;0.20;0.20;;;6.60;99.90;;;;;;5133471;27;20549;-72
2022/11/18 04:07:40;;;;;;;0.20;0.20;;;6.70;99.90;;;;;;5114748;27;20525;-72
2022/11/18 04:10:13;;;;;;;0.10;0.10;;;6.60;99.90;;;;;;5134708;27;20050;-73
2022/11/18 04:12:52;;;;;;;0.10;0.10;;;6.60;99.90;;;;;;5114754;27;20574;-72
2022/11/18 04:15:19;;;;;;;0.20;0.20;;;6.60;99.90;;;;;;5138998;27;20035;-72
2022/11/18 04:17:45;;;;;;;0.20;0.20;;;6.60;99.90;;;;;;5122863;27;20477;-72
2022/11/18 04:20:19;;;;;;;0.13;0.13;;;6.60;99.90;;;;;;5115617;27;20047;-72
2022/11/18 04:22:44;;;;;;;0.20;0.20;;;6.60;99.90;;;;;;5118260;27;20046;-71
2022/11/18 04:25:10;;;;;;;0.15;0.15;;;6.60;99.90;;;;;;5135824;27;20047;-71
2022/11/18 04:27:36;;;;;;;0.20;0.20;;;6.60;99.90;;;;;;5139829;27;20063;-72
2022/11/18 04:30:02;;;;;;;0.10;0.10;;;6.70;99.90;;;;;;5121265;27;20042;-71
2022/11/18 04:32:28;;;;;;;0.20;0.20;;;6.60;99.90;;;;;;5130256;27;20043;-71
2022/11/18 04:34:54;;;;;;;0.20;0.20;;;6.60;99.90;;;;;;5139205;27;20387;-72
2022/11/18 04:37:19;;;;;;;0.10;0.10;;;6.60;99.90;;;;;;5153842;27;20125;-74
2022/11/18 04:39:45;;;;;;;0.20;0.20;;;6.60;99.90;;;;;;5147311;27;20404;-71
2022/11/18 04:42:10;;;;;;;0.10;0.10;;;6.60;99.90;;;;;;5151783;27;20556;-71
2022/11/18 04:44:36;;;;;;;0.10;0.10;;;6.60;99.90;;;;;;5154333;27;20034;-71
2022/11/18 04:47:04;;;;;;;0.20;0.20;;;6.60;99.90;;;;;;5132298;27;20191;-71
2022/11/18 04:49:30;;;;;;;0.20;0.20;;;6.60;99.90;;;;;;5154058;27;20091;-71
2022/11/18 04:51:56;;;;;;;0.10;0.10;;;6.60;99.90;;;;;;5153308;27;20039;-71
2022/11/18 04:54:23;;;;;;;0.10;0.10;;;6.60;99.90;;;;;;5152413;27;20042;-71
2022/11/18 04:56:48;;;;;;;0.17;0.17;;;6.60;99.90;;;;;;5122169;27;20043;-71
2022/11/18 04:59:22;;;;;;;0.20;0.20;;;6.60;99.90;;;;;;5113201;27;20044;-71
2022/11/18 05:01:49;;;;;;;0.15;0.15;;;6.60;99.90;;;;;;5113120;27;20039;-71
2022/11/18 05:04:17;;;;;;;0.20;0.20;;;6.50;99.90;;;;;;5134332;27;20061;-71
2022/11/18 05:06:43;;;;;;;0.10;0.10;;;7.00;99.90;;;;;;5114223;27;20122;-71
2022/11/18 05:09:09;;;;;;;0.20;0.20;;;6.60;99.90;;;;;;5113580;27;20173;-72
2022/11/18 05:14:20;;;;;;;0.20;0.20;;;6.60;99.90;;;;;;5149312;27;20050;-72
2022/11/18 05:16:45;;;;;;;0.10;0.10;;;6.50;99.90;;;;;;5133430;27;20102;-72
2022/11/18 05:19:11;;;;;;;0.20;0.20;;;6.50;99.90;;;;;;5153096;27;20077;-72
2022/11/18 05:21:37;;;;;;;0.10;0.10;;;6.50;99.90;;;;;;5133952;27;20045;-72
2022/11/18 05:24:03;;;;;;;0.10;0.10;;;6.50;99.90;;;;;;5132798;27;20046;-72
2022/11/18 05:26:29;;;;;;;0.10;0.10;;;6.50;99.90;;;;;;5146157;27;20525;-72
2022/11/18 05:28:55;;;;;;;0.10;0.10;;;6.50;99.90;;;;;;5136427;27;20113;-73
2022/11/18 05:31:21;;;;;;;0.10;0.10;;;6.50;99.90;;;;;;5141877;27;20436;-73
2022/11/18 05:33:46;;;;;;;0.10;0.10;;;6.50;99.90;;;;;;5141387;27;20036;-72
2022/11/18 05:36:18;;;;;;;0.10;0.10;;;6.50;99.90;;;;;;5137277;27;20066;-72
2022/11/18 05:38:43;;;;;;;0.20;0.20;;;6.50;99.90;;;;;;5140763;27;20051;-72
2022/11/18 05:41:09;;;;;;;0.20;0.20;;;6.50;99.90;;;;;;5152625;27;20705;-72
2022/11/18 05:43:36;;;;;;;0.20;0.20;;;6.50;99.90;;;;;;5116865;27;20031;-72
2022/11/18 05:46:03;;;;;;;0.10;0.10;;;6.40;99.90;;;;;;5132523;27;20054;-72
2022/11/18 05:48:29;;;;;;;0.20;0.20;;;6.50;99.90;;;;;;5133263;27;20487;-72
2022/11/18 05:50:55;;;;;;;0.10;0.10;;;6.40;99.90;;;;;;5112952;27;20047;-72
2022/11/18 05:53:23;;;;;;;0.20;0.20;;;6.40;99.90;;;;;;5131821;27;20394;-72
2022/11/18 05:55:54;;;;;;;0.20;0.20;;;6.40;99.90;;;;;;5148269;27;20035;-72
2022/11/18 05:58:20;;;;;;;0.20;0.20;;;6.40;99.90;;;;;;5150759;27;20058;-72
2022/11/18 06:00:49;;;;;;;0.17;0.17;;;6.40;99.90;;;;;;5128608;27;20474;-72
2022/11/18 06:03:26;;;;;;;0.10;0.10;;;6.40;99.90;;;;;;5150354;27;20043;-72
2022/11/18 06:05:57;;;;;;;0.20;0.20;;;6.30;99.90;;;;;;5131979;27;20043;-72
2022/11/18 06:08:27;;;;;;;0.10;0.10;;;6.30;99.90;;;;;;5126175;27;20051;-72
2022/11/18 06:10:53;;;;;;;0.20;0.20;;;6.30;99.90;;;;;;5151704;27;20136;-73
2022/11/18 06:13:26;;;;;;;0.20;0.20;;;6.30;99.90;;;;;;5132520;27;20157;-72
2022/11/18 06:15:52;;;;;;;0.10;0.10;;;6.30;99.90;;;;;;5151123;27;20042;-72
2022/11/18 06:18:23;;;;;;;0.20;0.20;;;6.30;99.90;;;;;;5150798;27;20072;-72
2022/11/18 06:20:51;;;;;;;0.15;0.15;;;6.30;99.90;;;;;;5147756;27;20118;-72
2022/11/18 06:23:17;;;;;;;0.10;0.10;;;6.30;99.90;;;;;;5130978;27;20049;-72
2022/11/18 06:25:44;;;;;;;0.20;0.20;;;6.30;99.90;;;;;;5130950;27;20047;-72
2022/11/18 06:28:12;;;;;;;0.10;0.10;;;6.30;99.90;;;;;;5111664;27;20043;-72
2022/11/18 06:30:38;;;;;;;0.20;0.20;;;6.30;99.90;;;;;;5135851;27;20067;-72
2022/11/18 06:33:03;;;;;;;0.10;0.10;;;6.30;99.90;;;;;;5130890;27;20458;-72
2022/11/18 06:35:29;;;;;;;0.20;0.20;;;6.30;99.90;;;;;;5126397;27;20050;-72
2022/11/18 06:37:54;;;;;;;0.20;0.20;;;6.30;99.90;;;;;;5142289;27;20360;-72
2022/11/18 06:40:20;;;;;;;0.10;0.10;;;6.30;99.90;;;;;;5120658;27;20099;-72
2022/11/18 06:45:30;;;;;;;0.20;0.20;;;6.30;99.90;;;;;;5142240;27;20044;-72
2022/11/18 06:47:57;;;;;;;0.20;0.20;;;6.30;99.90;;;;;;5151607;27;20071;-72
2022/11/18 06:50:23;;;;;;;0.15;0.15;;;6.30;99.90;;;;;;5133297;27;20093;-72
2022/11/18 06:52:48;;;;;;;0.20;0.20;;;6.30;99.90;;;;;;5150652;27;20074;-72
2022/11/18 06:55:14;;;;;;;0.20;0.20;;;7.30;99.90;;;;;;5125380;28;20054;-72
2022/11/18 06:57:39;;;;;;;0.10;0.10;;;6.40;99.90;;;;;;5130034;28;20076;-72
2022/11/18 07:00:06;;;;;;;0.20;0.20;;;6.30;99.90;;;;;;5135231;27;20124;-72
2022/11/18 07:02:34;;;;;;;0.10;0.10;;;6.30;99.90;;;;;;5132269;27;20039;-72
2022/11/18 07:05:00;;;;;;;0.20;0.20;;;6.20;99.90;;;;;;5133504;27;20629;-72
2022/11/18 07:07:25;;;;;;;0.28;0.28;;;6.20;99.90;;;;;;5131994;27;20053;-72
2022/11/18 07:09:51;;;;;;;0.13;0.13;;;6.30;99.90;;;;;;5149849;27;20054;-72
2022/11/18 07:12:17;;;;;;;0.20;0.20;;;6.20;99.90;;;;;;5141868;27;20035;-72
2022/11/18 07:14:42;;;;;;;0.10;0.10;;;6.20;99.90;;;;;;5130355;28;20043;-72
2022/11/18 07:17:08;;;;;;;0.20;0.20;;;6.20;99.90;;;;;;5130620;28;20516;-72
2022/11/18 07:19:33;;;;;;;0.10;0.10;;;6.20;99.90;;;;;;5132424;27;20474;-72
2022/11/18 07:21:59;;;;;;;0.20;0.20;;;6.20;99.90;;;;;;5138473;27;20038;-72
2022/11/18 07:24:25;;;;;;;0.20;0.20;;;6.10;99.90;;;;;;5116923;27;20054;-72
2022/11/18 07:26:53;;;;;;;0.20;0.20;;;6.10;99.90;;;;;;5116577;27;20039;-72
2022/11/18 07:29:18;;;;;;;0.20;0.20;;;6.10;99.90;;;;;;5117809;27;20051;-72
2022/11/18 07:31:44;;;;;;;0.20;0.20;;;6.10;99.90;;;;;;5138185;27;20039;-71
2022/11/18 07:34:11;;;;;;;0.20;0.20;;;6.10;99.90;;;;;;5113754;27;20489;-73
2022/11/18 07:36:36;;;;;;;0.20;0.20;;;5.70;99.90;;;;;;5112185;27;20042;-71
2022/11/18 07:39:04;;;;;;;0.10;0.10;;;6.10;99.90;;;;;;5131614;27;20081;-71
2022/11/18 07:41:30;;;;;;;0.20;0.20;;;6.10;99.90;;;;;;5136004;27;20069;-71
2022/11/18 07:43:57;;;;;;;0.20;0.20;;;6.10;99.90;;;;;;5117605;27;20062;-71
2022/11/18 07:46:29;;;;;;;0.20;0.20;;;6.10;99.90;;;;;;5137524;27;20042;-71
2022/11/18 07:48:57;;;;;;;0.20;0.20;;;6.10;99.90;;;;;;5130688;27;20921;-72
2022/11/18 07:51:29;;;;;;;0.10;0.10;;;6.10;99.90;;;;;;5130524;27;20042;-71
2022/11/18 07:53:54;;;;;;;;;;;6.10;99.90;;;;;;5119977;27;20054;-71
2022/11/18 07:56:21;;;;;;;0.10;0.10;;;6.10;99.90;;;;;;5140233;27;19927;-72
2022/11/18 07:58:47;;;;;;;0.20;0.20;;;6.10;99.90;;;;;;5140130;27;20122;-72
2022/11/18 08:01:16;;;;;;;0.10;0.10;;;6.10;99.90;;;;;;5140445;27;20159;-71
2022/11/18 08:03:42;;;;;;;0.17;0.17;;;6.10;99.90;;;;;;5138799;27;20034;-71
2022/11/18 08:06:09;;;;;;;0.10;0.10;;;6.00;99.90;;;;;;5142012;27;20034;-73
2022/11/18 08:08:35;;;;;;;0.20;0.20;;;6.00;99.90;;;;;;5120318;27;20035;-73
2022/11/18 08:11:03;;;;;;;0.20;0.20;;;6.00;99.90;;;;;;5144988;27;20074;-73
2022/11/18 08:13:29;;;;;;;0.17;0.17;;;6.00;99.90;;;;;;5136093;27;20110;-72
2022/11/18 08:15:55;;;;;;;0.20;0.20;;;6.00;99.90;;;;;;5152652;27;20118;-73
2022/11/18 08:18:21;;;;;;;0.20;0.20;;;6.10;99.90;;;;;;5149585;27;20043;-72
2022/11/18 08:20:47;;;;;;;0.20;0.20;;;6.00;99.90;;;;;;5154528;27;20043;-72
2022/11/18 08:23:14;;;;;;;0.10;0.10;;;6.00;99.90;;;;;;5146691;27;20546;-72
2022/11/18 08:25:41;;;;;;;0.20;0.20;;;6.00;99.90;;;;;;5126139;27;20477;-72
2022/11/18 08:28:07;;;;;;;0.10;0.10;;;6.00;99.90;;;;;;5138867;27;20379;-73
2022/11/18 08:30:33;;;;;;;0.10;0.10;;;6.00;99.90;;;;;;5121941;27;20051;-73
2022/11/18 08:32:59;;;;;;;0.20;0.20;;;6.00;99.90;;;;;;5114873;27;20056;-73
2022/11/18 08:35:26;;;;;;;0.10;0.10;;;6.00;99.90;;;;;;5138449;27;21869;-73
2022/11/18 08:37:52;;;;;;;0.20;0.20;;;6.00;99.90;;;;;;5117329;27;20056;-73
2022/11/18 08:40:18;;;;;;;0.20;0.20;;;6.00;99.90;;;;;;5141518;27;20402;-72
2022/11/18 08:42:44;;;;;;;0.10;0.10;;;6.00;99.90;;;;;;5137050;27;20435;-73
2022/11/18 08:45:10;;;;;;;0.15;0.15;;;6.10;99.90;;;;;;5135553;27;20570;-72
2022/11/18 08:47:36;;;;;;;0.10;0.10;;;6.10;99.90;;;;;;5116578;27;20031;-72
2022/11/18 08:50:03;;;;;;;0.15;0.15;;;6.00;99.90;;;;;;5122660;27;20072;-72
2022/11/18 08:52:29;;;;;;;0.10;0.10;;;6.00;99.90;;;;;;5118923;27;20043;-72
2022/11/18 08:54:56;;;;;;;0.10;0.10;;;6.00;99.90;;;;;;5115054;27;20505;-72
2022/11/18 08:57:21;;;;;;;0.10;0.10;;;6.00;99.90;;;;;;5121416;27;20054;-72
2022/11/18 08:59:47;;;;;;;0.10;0.10;;;6.00;99.90;;;;;;5114379;27;20042;-72
2022/11/18 09:02:14;;;;;;;0.20;0.20;;;6.00;99.90;;;;;;5115962;27;20042;-72
2022/11/18 09:04:40;;;;;;;0.10;0.10;;;6.00;99.90;;;;;;5119467;27;20077;-72
2022/11/18 09:07:06;;;;;;;0.57;0.40;;;6.00;99.90;;;;;;5116077;27;20135;-72
2022/11/18 09:09:32;;;;;;;0.20;0.20;;;6.00;99.90;;;;;;5119297;27;20448;-72
2022/11/18 09:11:57;;;;;;;0.10;0.10;;;6.00;99.90;;;;;;5135014;27;20038;-72
2022/11/18 09:14:23;;;;;;;0.17;0.17;;;6.00;99.90;;;;;;5134355;27;20165;-73
2022/11/18 09:16:48;;;;;;;0.20;0.20;;;6.00;99.90;;;;;;5133113;27;20096;-72
2022/11/18 09:19:15;;;;;;;0.10;0.10;;;6.00;99.90;;;;;;5144972;27;20600;-71
2022/11/18 09:21:40;;;;;;;0.20;0.20;;;6.00;99.90;;;;;;5134660;27;20052;-72
2022/11/18 09:24:07;;;;;;;0.20;0.20;;;6.00;99.90;;;;;;5114156;27;20038;-72
2022/11/18 09:26:33;;;;;;;0.10;0.10;;;6.00;99.90;;;;;;5135539;27;20042;-72
2022/11/18 09:28:58;;;;;;;0.10;0.10;;;5.90;99.90;;;;;;5137459;27;20059;-72
2022/11/18 09:31:24;;;;;;;0.10;0.10;;;5.90;99.90;;;;;;5119919;27;20035;-72
2022/11/18 09:33:50;;;;;;;0.10;0.10;;;5.90;99.90;;;;;;5137959;27;20546;-71
2022/11/18 09:36:23;;;;;;;0.10;0.10;;;5.90;99.90;;;;;;5129568;27;20394;-72
2022/11/18 09:38:49;;;;;;;0.10;0.10;;;5.90;99.90;;;;;;5138417;27;20050;-71
2022/11/18 09:41:22;;;;;;;0.15;0.15;;;5.80;99.90;;;;;;5145206;27;20038;-71
2022/11/18 09:44:19;;;;;;;0.10;0.10;;;5.90;99.90;;;;;;5140063;27;20034;-72
2022/11/18 09:47:00;;;;;;;0.10;0.10;;;5.90;99.90;;;;;;5119713;27;20111;-72
2022/11/18 09:49:30;;;;;;;0.10;0.10;;;5.90;99.90;;;;;;5125961;27;20035;-72
2022/11/18 09:52:00;;;;;;;0.17;0.17;;;5.90;99.90;;;;;;5126342;27;20047;-73
2022/11/18 09:54:30;;;;;;;0.20;0.20;;;5.90;99.90;;;;;;5135268;27;20058;-70
2022/11/18 09:56:56;;;;;;;0.10;0.10;;;6.50;99.90;;;;;;5125080;27;20061;-70
2022/11/18 09:59:26;;;;;;;0.20;0.20;;;5.90;99.90;;;;;;5144478;27;20047;-69
2022/11/18 10:01:56;;;;;;;0.20;0.20;;;6.10;99.90;;;;;;5126315;27;20047;-71
2022/11/18 10:04:22;;;;;;;0.10;0.10;;;5.90;99.90;;;;;;5132276;27;20043;-71
2022/11/18 10:06:48;;;;;;;0.15;0.15;;;5.90;99.90;;;;;;5123648;27;20054;-71
2022/11/18 10:09:36;;;;;;;0.20;0.20;;;5.90;99.90;;;;;;5117102;27;20074;-71
2022/11/18 10:12:15;;;;;;;0.10;0.10;;;5.90;99.90;;;;;;5114760;27;20118;-71
2022/11/18 10:14:41;;;;;;;0.10;0.10;;;5.90;99.90;;;;;;5139313;27;20106;-71
2022/11/18 10:17:17;;;;;;;0.20;0.20;;;5.80;99.90;;;;;;5132982;27;20129;-71
2022/11/18 10:20:20;;;;;;;0.20;0.20;;;5.90;99.90;;;;;;5133778;27;20177;-71
2022/11/18 10:23:28;;;;;;;0.15;0.15;;;5.80;99.90;;;;;;5122849;27;20070;-71
2022/11/18 10:25:53;;;;;;;0.20;0.20;;;5.80;99.90;;;;;;5060628;28;20805;-71
2022/11/18 10:28:29;;;;;;;0.20;0.20;;;5.80;99.90;;;;;;5122008;27;20054;-71
2022/11/18 10:31:07;;;;;;;0.20;0.20;;;5.70;99.90;;;;;;5124112;27;20043;-70
2022/11/18 10:33:33;;;;;;;0.20;0.20;;;5.70;99.90;;;;;;5118386;27;20050;-71
2022/11/18 10:36:25;;;;;;;0.10;0.10;;;5.70;99.90;;;;;;5113262;27;20037;-71
2022/11/18 10:39:05;;;;;;;0.10;0.10;;;5.70;99.90;;;;;;5135432;27;20047;-71
2022/11/18 10:41:38;;;;;;;0.20;0.20;;;5.70;99.90;;;;;;5131254;27;20100;-71
2022/11/18 10:44:03;;;;;;;0.17;0.17;;;5.60;99.90;;;;;;5123305;27;20062;-71
2022/11/18 10:46:31;;;;;;;0.20;0.20;;;5.70;99.90;;;;;;5147982;27;20043;-71
2022/11/18 10:49:16;;;;;;;0.10;0.10;;;5.60;99.90;;;;;;5131717;27;20081;-71
2022/11/18 10:52:01;;;;;;;0.10;0.10;;;5.60;99.90;;;;;;5131518;27;20757;-72
2022/11/18 10:54:27;;;;;;;0.10;0.10;;;5.60;99.90;;;;;;5120019;27;20517;-74
2022/11/18 10:57:02;;;;;;;0.20;0.20;;;5.80;99.90;;;;;;5138333;27;20070;-72
2022/11/18 10:59:30;;;;;;;0.20;0.20;;;5.50;99.90;;;;;;5124431;27;20482;-71
2022/11/18 11:01:58;;;;;;;0.10;0.10;;;5.50;99.90;;;;;;5146373;27;20050;-72
2022/11/18 11:04:26;;;;;;;0.20;0.20;;;5.50;99.90;;;;;;5137723;27;20168;-72
2022/11/18 11:06:52;;;;;;;0.10;0.10;;;5.50;99.90;;;;;;5121294;27;20077;-71
2022/11/18 11:09:29;;;;;;;0.10;0.10;;;5.40;99.90;;;;;;5144682;27;20041;-72
2022/11/18 11:11:58;;;;;;;0.20;0.20;;;5.40;99.90;;;;;;5116588;27;20100;-72
2022/11/18 11:14:31;;;;;;;0.20;0.20;;;5.40;99.90;;;;;;5119128;27;20125;-71
2022/11/18 11:17:11;;;;;;;0.17;0.17;;;5.40;99.90;;;;;;5137690;27;20027;-71
2022/11/18 11:19:48;;;;;;;0.20;0.20;;;5.30;99.90;;;;;;5153832;27;20051;-72
2022/11/18 11:22:14;;;;;;;0.10;0.10;;;5.30;99.90;;;;;;5145147;27;20168;-72
2022/11/18 11:24:40;;;;;;;0.20;0.20;;;5.30;99.90;;;;;;5135011;27;20042;-71
2022/11/18 11:27:35;;;;;;;0.20;0.20;;;5.30;99.90;;;;;;5114416;27;20397;-71
2022/11/18 11:30:16;;;;;;;0.10;0.10;;;5.20;99.90;;;;;;5138627;27;20395;-71
2022/11/18 11:32:42;;;;;;;0.20;0.20;;;5.20;99.90;;;;;;5115716;27;20052;-71
2022/11/18 11:35:32;;;;;;;0.20;0.20;;;5.20;99.90;;;;;;5142262;27;20050;-71
2022/11/18 11:38:03;;;;;;;0.20;0.20;;;5.20;99.90;;;;;;5127609;27;20088;-71
2022/11/18 11:40:36;;;;;;;0.20;0.20;;;5.20;99.90;;;;;;5137649;27;20568;-71
2022/11/18 11:43:07;;;;;;;0.10;0.10;;;5.10;99.90;;;;;;5115552;27;20370;-72
2022/11/18 11:45:56;;;;;;;0.10;0.10;;;5.20;99.90;;;;;;5149396;27;20045;-72
2022/11/18 11:48:25;;;;;;;0.10;0.10;;;5.10;99.90;;;;;;5114708;27;20139;-71
2022/11/18 11:50:59;;;;;;;0.10;0.10;;;5.10;99.90;;;;;;5135343;27;20549;-71
2022/11/18 11:53:33;;;;;;;0.10;0.10;;;5.10;99.90;;;;;;5139059;27;20035;-71
2022/11/18 11:56:13;;;;;;;0.10;0.10;;;5.10;99.90;;;;;;5150905;27;20046;-71
2022/11/18 11:58:57;;;;;;;0.10;0.10;;;5.00;99.90;;;;;;5115407;27;20027;-71
2022/11/18 12:01:34;;;;;;;0.20;0.20;;;5.00;99.90;;;;;;5138521;27;20047;-71
2022/11/18 12:04:34;;;;;;;0.17;0.17;;;5.00;99.90;;;;;;5140171;27;20475;-71
2022/11/18 12:07:02;;;;;;;0.20;0.20;;;5.00;99.90;;;;;;5150293;27;20144;-71
2022/11/18 12:09:33;;;;;;;0.10;0.10;;;5.00;99.90;;;;;;5132373;27;20085;-71
2022/11/18 12:12:33;;;;;;;0.10;0.10;;;4.90;99.90;;;;;;5135173;27;20463;-72
2022/11/18 12:15:19;;;;;;;0.20;0.20;;;4.90;99.90;;;;;;5141267;27;20100;-71
2022/11/18 12:18:10;;;;;;;0.20;0.20;;;4.90;99.90;;;;;;5129024;27;20406;-71
2022/11/18 12:20:37;;;;;;;0.10;0.10;;;4.90;99.90;;;;;;5151285;27;20099;-71
2022/11/18 12:23:15;;;;;;;0.20;0.20;;;4.90;99.90;;;;;;5126756;27;20041;-71
2022/11/18 12:25:55;;;;;;;0.20;0.20;;;4.90;99.90;;;;;;5115202;27;20308;-70
2022/11/18 12:28:21;;;;;;;0.20;0.20;;;4.90;99.90;;;;;;5133133;27;20494;-71
2022/11/18 12:30:47;;;;;;;0.20;0.20;;;4.90;99.90;;;;;;5153780;27;20042;-71
2022/11/18 12:33:16;;;;;;;0.20;0.20;;;4.90;99.90;;;;;;5153915;27;20389;-71
2022/11/18 12:35:47;;;;;;;0.20;0.20;;;4.90;99.90;;;;;;5151081;27;20054;-71
2022/11/18 12:38:31;;;;;;;0.20;0.20;;;4.90;99.90;;;;;;5151775;27;20050;-71
2022/11/18 12:40:56;;;;;;;0.20;0.20;;;4.80;99.90;;;;;;5135605;27;20065;-71
2022/11/18 12:46:29;;;;;;;0.20;0.20;;;4.90;99.90;;;;;;5153631;27;20382;-70
2022/11/18 12:48:56;;;;;;;0.10;0.10;;;4.90;99.90;;;;;;5114162;27;20035;-70
2022/11/18 12:51:23;;;;;;;0.20;0.20;;;5.10;99.90;;;;;;5146838;27;20110;-71
2022/11/18 12:53:51;;;;;;;0.20;0.20;;;4.90;99.90;;;;;;5153303;27;20039;-71
2022/11/18 12:56:16;;;;;;;0.20;0.20;;;4.80;99.90;;;;;;5154211;27;20488;-71
2022/11/18 12:58:46;;;;;;;0.20;0.20;;;4.80;99.90;;;;;;5131606;27;20311;-70
2022/11/18 13:01:16;;;;;;;0.17;0.17;;;4.80;99.90;;;;;;5145449;27;20043;-71
2022/11/18 13:03:42;;;;;;;0.20;0.20;;;4.80;99.90;;;;;;5134123;27;20282;-71
2022/11/18 13:06:22;;;;;;;0.20;0.20;;;4.80;99.90;;;;;;5114162;27;20494;-70
2022/11/18 13:08:57;;;;;;;0.20;0.20;;;4.80;99.90;;;;;;5145736;27;20073;-71
2022/11/18 13:11:43;;;;;;;0.20;0.20;;;4.70;99.90;;;;;;5134517;27;20084;-71
2022/11/18 13:20:30;;;;;;;0.20;0.20;;;4.60;99.90;;;;;;5152219;27;20046;-71
2022/11/18 13:26:26;;;;;;;0.20;0.20;;;4.50;99.90;;;;;;5137129;27;20306;-70
2022/11/18 13:29:21;;;;;;;0.20;0.20;;;4.50;99.90;;;;;;5144538;27;20517;-71
2022/11/18 13:31:46;;;;;;;0.20;0.20;;;4.40;99.90;;;;;;5133889;27;20074;-70
2022/11/18 13:34:18;;;;;;;0.20;0.20;;;4.40;99.90;;;;;;5127402;27;20097;-70
2022/11/18 13:36:46;;;;;;;0.20;0.20;;;4.40;99.90;;;;;;5132072;27;20039;-70
2022/11/18 13:39:23;;;;;;;0.20;0.20;;;4.30;99.90;;;;;;5126884;27;20159;-70
2022/11/18 13:42:01;;;;;;;0.20;0.20;;;4.30;99.90;;;;;;5131566;27;20092;-70